Polar Bear — ZMA2072 — position and weather

sailwx.info

Track history (hours):
 
Tides and Currents Weather Stations Pressure Air Temp Water Temp Dewpoint Dewpoint Depression Visibility Wind Speed Wind Dir Waves Ship Positions

Polar Bear

Last reported at 2017-May-31 21:14 UTC. Time now 2017-Sep-26 06:00 UTC.
Position N 49°10' W 123°39'.
Warning: this ship's position is months out of date.

Length 28 m; draft 2.3 m.

Type: Pleasure craft. MMSI: 512172000.

Date/timePositionNaut miles runAvg speedWind from/ knotsBaromVisibWave heightAir tempDewpointWater temp
2017-May-31 21:14N 49°10' W 123°39'4 9.9
2017-May-31 20:47N 49°07' W 123°34'310.0
2017-May-31 20:29N 49°05' W 123°30'510.0
2017-May-31 19:59N 49°01' W 123°25'5 9.5
2017-May-31 19:29N 48°58' W 123°19'5 9.0
2017-May-31 18:57N 48°55' W 123°14'4 8.7
2017-May-31 18:30N 48°53' W 123°09'5 9.2
2017-May-31 18:00N 48°50' W 123°04'4 7.2
2017-May-31 17:30N 48°46' W 123°02'5 9.1
2017-May-31 17:00N 48°42' W 123°05'5 9.3
2017-May-31 16:30N 48°38' W 123°06'2 4.1
2017-May-31 15:57N 48°37' W 123°09'0 0.0
2017-May-31 15:30N 48°37' W 123°09'0 0.0
2017-May-31 15:00N 48°37' W 123°09'0 0.0
2017-May-31 14:00N 48°37' W 123°09'0 0.0
2017-May-31 13:30N 48°37' W 123°09'0 0.0
2017-May-31 13:00N 48°37' W 123°09'0 0.0
2017-May-31 12:30N 48°37' W 123°09'0 0.0
2017-May-31 12:00N 48°37' W 123°09'0 0.0
2017-May-31 11:30N 48°37' W 123°09'0 0.0
2017-May-31 11:00N 48°37' W 123°09'0 0.0
2017-May-31 10:30N 48°37' W 123°09'0 0.0
2017-May-31 10:00N 48°37' W 123°09'0 0.0
2017-May-31 09:30N 48°37' W 123°09'0 0.0
2017-May-31 09:00N 48°37' W 123°09'0 0.0
2017-May-31 08:30N 48°37' W 123°09'0 0.0
2017-May-31 08:00N 48°37' W 123°09'0 0.0
2017-May-31 07:30N 48°37' W 123°09'0 0.0
2017-May-31 07:00N 48°37' W 123°09'0 0.0
2017-May-31 06:30N 48°37' W 123°09'0 0.0
2017-May-31 06:00N 48°37' W 123°09'0 0.0
2017-May-31 05:30N 48°37' W 123°09'0 0.0
2017-May-31 04:57N 48°37' W 123°09'0 0.0
2017-May-31 04:30N 48°37' W 123°09'0 0.0
2017-May-31 03:57N 48°37' W 123°09'0 0.0
2017-May-31 03:03N 48°37' W 123°09'0 0.0
2017-May-31 02:57N 48°37' W 123°09'0 0.0
2017-May-31 02:27N 48°37' W 123°09'0 0.0
2017-May-31 01:57N 48°37' W 123°09'0 0.0
2017-May-31 01:09N 48°37' W 123°09'0 0.0
2017-May-31 01:00N 48°37' W 123°09'0 0.0
2017-May-31 00:30N 48°37' W 123°09'0 0.0
2017-May-31 00:00N 48°37' W 123°09'0 0.0
2017-May-30 23:27N 48°37' W 123°09'0 0.0
2017-May-30 23:00N 48°37' W 123°09'0 0.0
2017-May-30 22:09N 48°37' W 123°09'0 0.0
2017-May-30 22:00N 48°37' W 123°09'0 0.0
2017-May-30 21:27N 48°37' W 123°09'0 0.0
2017-May-30 21:00N 48°37' W 123°09'0 0.0
2017-May-30 20:30N 48°37' W 123°09'0 0.8
2017-May-30 20:00N 48°37' W 123°10'3 5.3
2017-May-30 19:30N 48°39' W 123°13'510.8
2017-May-30 19:00N 48°43' W 123°17'5 9.6
2017-May-30 18:30N 48°47' W 123°21'7 9.4
2017-May-30 17:44N 48°53' W 123°27'  
Track history (hours):
 
Tides and Currents Weather Stations Pressure Air Temp Water Temp Dewpoint Dewpoint Depression Visibility Wind Speed Wind Dir Waves Ship Positions

Polar Bear

Last reported at 2017-May-31 21:14 UTC. Time now 2017-Sep-26 06:00 UTC.
Position N 49°10' W 123°39'.
Warning: this ship's position is months out of date.

Length 28 m; draft 2.3 m.

Type: Pleasure craft. MMSI: 512172000.

Date/timePositionNaut miles runAvg speedWind from/ knotsBaromVisibWave heightAir tempDewpointWater temp
2017-May-31 21:14N 49°10' W 123°39'4 9.9
2017-May-31 20:47N 49°07' W 123°34'310.0
2017-May-31 20:29N 49°05' W 123°30'510.0
2017-May-31 19:59N 49°01' W 123°25'5 9.5
2017-May-31 19:29N 48°58' W 123°19'5 9.0
2017-May-31 18:57N 48°55' W 123°14'4 8.7
2017-May-31 18:30N 48°53' W 123°09'5 9.2
2017-May-31 18:00N 48°50' W 123°04'4 7.2
2017-May-31 17:30N 48°46' W 123°02'5 9.1
2017-May-31 17:00N 48°42' W 123°05'5 9.3
2017-May-31 16:30N 48°38' W 123°06'2 4.1
2017-May-31 15:57N 48°37' W 123°09'0 0.0
2017-May-31 15:30N 48°37' W 123°09'0 0.0
2017-May-31 15:00N 48°37' W 123°09'0 0.0
2017-May-31 14:00N 48°37' W 123°09'0 0.0
2017-May-31 13:30N 48°37' W 123°09'0 0.0
2017-May-31 13:00N 48°37' W 123°09'0 0.0
2017-May-31 12:30N 48°37' W 123°09'0 0.0
2017-May-31 12:00N 48°37' W 123°09'0 0.0
2017-May-31 11:30N 48°37' W 123°09'0 0.0
2017-May-31 11:00N 48°37' W 123°09'0 0.0
2017-May-31 10:30N 48°37' W 123°09'0 0.0
2017-May-31 10:00N 48°37' W 123°09'0 0.0
2017-May-31 09:30N 48°37' W 123°09'0 0.0
2017-May-31 09:00N 48°37' W 123°09'0 0.0
2017-May-31 08:30N 48°37' W 123°09'0 0.0
2017-May-31 08:00N 48°37' W 123°09'0 0.0
2017-May-31 07:30N 48°37' W 123°09'0 0.0
2017-May-31 07:00N 48°37' W 123°09'0 0.0
2017-May-31 06:30N 48°37' W 123°09'0 0.0
2017-May-31 06:00N 48°37' W 123°09'0 0.0
2017-May-31 05:30N 48°37' W 123°09'0 0.0
2017-May-31 04:57N 48°37' W 123°09'0 0.0
2017-May-31 04:30N 48°37' W 123°09'0 0.0
2017-May-31 03:57N 48°37' W 123°09'0 0.0
2017-May-31 03:03N 48°37' W 123°09'0 0.0
2017-May-31 02:57N 48°37' W 123°09'0 0.0
2017-May-31 02:27N 48°37' W 123°09'0 0.0
2017-May-31 01:57N 48°37' W 123°09'0 0.0
2017-May-31 01:09N 48°37' W 123°09'0 0.0
2017-May-31 01:00N 48°37' W 123°09'0 0.0
2017-May-31 00:30N 48°37' W 123°09'0 0.0
2017-May-31 00:00N 48°37' W 123°09'0 0.0
2017-May-30 23:27N 48°37' W 123°09'0 0.0
2017-May-30 23:00N 48°37' W 123°09'0 0.0
2017-May-30 22:09N 48°37' W 123°09'0 0.0
2017-May-30 22:00N 48°37' W 123°09'0 0.0
2017-May-30 21:27N 48°37' W 123°09'0 0.0
2017-May-30 21:00N 48°37' W 123°09'0 0.0
2017-May-30 20:30N 48°37' W 123°09'0 0.8
2017-May-30 20:00N 48°37' W 123°10'3 5.3
2017-May-30 19:30N 48°39' W 123°13'510.8
2017-May-30 19:00N 48°43' W 123°17'5 9.6
2017-May-30 18:30N 48°47' W 123°21'7 9.4
2017-May-30 17:44N 48°53' W 123°27'  

Dump ship's entire track history